sensor_id;sensor_type;location;lat;lon;timestamp;P1;durP1;ratioP1;P2;durP2;ratioP2
42134;SDS011;28312;43.460;11.810;2023-02-26T00:02:05;9.02;;;4.97;;
42134;SDS011;28312;43.460;11.810;2023-02-26T00:06:09;8.40;;;5.63;;
42134;SDS011;28312;43.460;11.810;2023-02-26T00:10:13;10.38;;;5.82;;
42134;SDS011;28312;43.460;11.810;2023-02-26T00:14:18;6.53;;;4.15;;
42134;SDS011;28312;43.460;11.810;2023-02-26T00:18:22;8.18;;;5.25;;
42134;SDS011;28312;43.460;11.810;2023-02-26T00:22:26;12.50;;;6.85;;
42134;SDS011;28312;43.460;11.810;2023-02-26T00:26:30;6.72;;;3.83;;
42134;SDS011;28312;43.460;11.810;2023-02-26T00:30:34;5.68;;;3.58;;
42134;SDS011;28312;43.460;11.810;2023-02-26T00:34:38;6.05;;;3.20;;
42134;SDS011;28312;43.460;11.810;2023-02-26T00:38:43;6.93;;;4.30;;
42134;SDS011;28312;43.460;11.810;2023-02-26T00:42:53;12.88;;;6.95;;
42134;SDS011;28312;43.460;11.810;2023-02-26T00:47:02;7.40;;;4.75;;
42134;SDS011;28312;43.460;11.810;2023-02-26T00:51:34;13.45;;;7.57;;
42134;SDS011;28312;43.460;11.810;2023-02-26T00:59:45;9.10;;;5.55;;
42134;SDS011;28312;43.460;11.810;2023-02-26T01:03:48;6.95;;;3.22;;
42134;SDS011;28312;43.460;11.810;2023-02-26T01:08:07;11.70;;;5.50;;
42134;SDS011;28312;43.460;11.810;2023-02-26T01:16:24;7.95;;;4.72;;
42134;SDS011;28312;43.460;11.810;2023-02-26T01:20:33;6.80;;;3.88;;
42134;SDS011;28312;43.460;11.810;2023-02-26T01:24:43;6.47;;;4.50;;
42134;SDS011;28312;43.460;11.810;2023-02-26T01:28:50;8.93;;;4.97;;
42134;SDS011;28312;43.460;11.810;2023-02-26T01:42:17;8.35;;;3.85;;
42134;SDS011;28312;43.460;11.810;2023-02-26T01:46:32;7.30;;;4.50;;
42134;SDS011;28312;43.460;11.810;2023-02-26T01:50:40;7.63;;;3.78;;
42134;SDS011;28312;43.460;11.810;2023-02-26T01:54:44;5.72;;;4.43;;
42134;SDS011;28312;43.460;11.810;2023-02-26T01:58:47;4.55;;;3.08;;
42134;SDS011;28312;43.460;11.810;2023-02-26T02:02:52;13.25;;;7.10;;
42134;SDS011;28312;43.460;11.810;2023-02-26T02:06:57;8.07;;;3.53;;
42134;SDS011;28312;43.460;11.810;2023-02-26T02:11:02;7.93;;;5.03;;
42134;SDS011;28312;43.460;11.810;2023-02-26T02:15:10;8.40;;;5.47;;
42134;SDS011;28312;43.460;11.810;2023-02-26T02:41:34;11.32;;;5.57;;
42134;SDS011;28312;43.460;11.810;2023-02-26T02:49:57;13.70;;;8.35;;
42134;SDS011;28312;43.460;11.810;2023-02-26T02:54:09;10.38;;;4.30;;
42134;SDS011;28312;43.460;11.810;2023-02-26T02:58:21;11.18;;;8.20;;
42134;SDS011;28312;43.460;11.810;2023-02-26T03:07:20;8.25;;;5.30;;
42134;SDS011;28312;43.460;11.810;2023-02-26T03:11:26;9.82;;;5.47;;
42134;SDS011;28312;43.460;11.810;2023-02-26T03:28:37;7.90;;;5.45;;
42134;SDS011;28312;43.460;11.810;2023-02-26T03:37:40;8.18;;;6.15;;
42134;SDS011;28312;43.460;11.810;2023-02-26T03:50:34;7.20;;;5.28;;
42134;SDS011;28312;43.460;11.810;2023-02-26T03:55:14;6.65;;;4.50;;
42134;SDS011;28312;43.460;11.810;2023-02-26T03:59:37;13.57;;;8.20;;
42134;SDS011;28312;43.460;11.810;2023-02-26T04:04:03;11.65;;;7.82;;
42134;SDS011;28312;43.460;11.810;2023-02-26T04:08:11;12.43;;;8.30;;
42134;SDS011;28312;43.460;11.810;2023-02-26T04:12:14;6.50;;;4.85;;
42134;SDS011;28312;43.460;11.810;2023-02-26T04:16:24;7.45;;;4.88;;
42134;SDS011;28312;43.460;11.810;2023-02-26T04:20:31;8.10;;;7.15;;
42134;SDS011;28312;43.460;11.810;2023-02-26T04:24:35;7.05;;;5.07;;
42134;SDS011;28312;43.460;11.810;2023-02-26T04:28:39;9.68;;;7.38;;
42134;SDS011;28312;43.460;11.810;2023-02-26T04:32:44;11.98;;;8.75;;
42134;SDS011;28312;43.460;11.810;2023-02-26T04:36:49;10.47;;;7.50;;
42134;SDS011;28312;43.460;11.810;2023-02-26T04:40:54;8.80;;;6.22;;
42134;SDS011;28312;43.460;11.810;2023-02-26T04:44:59;6.45;;;5.53;;
42134;SDS011;28312;43.460;11.810;2023-02-26T04:53:11;8.18;;;6.18;;
42134;SDS011;28312;43.460;11.810;2023-02-26T04:57:14;8.98;;;6.03;;
42134;SDS011;28312;43.460;11.810;2023-02-26T05:01:19;10.07;;;7.43;;
42134;SDS011;28312;43.460;11.810;2023-02-26T05:05:22;13.80;;;7.93;;
42134;SDS011;28312;43.460;11.810;2023-02-26T05:09:26;9.35;;;7.57;;
42134;SDS011;28312;43.460;11.810;2023-02-26T05:13:30;14.48;;;10.43;;
42134;SDS011;28312;43.460;11.810;2023-02-26T05:17:36;10.07;;;8.52;;
42134;SDS011;28312;43.460;11.810;2023-02-26T05:21:40;7.03;;;4.88;;
42134;SDS011;28312;43.460;11.810;2023-02-26T05:25:45;8.80;;;6.28;;
42134;SDS011;28312;43.460;11.810;2023-02-26T05:29:50;8.07;;;6.38;;
42134;SDS011;28312;43.460;11.810;2023-02-26T05:33:53;7.57;;;5.20;;
42134;SDS011;28312;43.460;11.810;2023-02-26T05:37:56;10.55;;;8.82;;
42134;SDS011;28312;43.460;11.810;2023-02-26T05:42:00;13.07;;;7.25;;
42134;SDS011;28312;43.460;11.810;2023-02-26T05:46:03;7.68;;;6.68;;
42134;SDS011;28312;43.460;11.810;2023-02-26T05:50:07;10.82;;;8.20;;
42134;SDS011;28312;43.460;11.810;2023-02-26T05:54:12;10.15;;;6.72;;
42134;SDS011;28312;43.460;11.810;2023-02-26T05:58:16;9.32;;;7.22;;
42134;SDS011;28312;43.460;11.810;2023-02-26T06:02:19;9.88;;;8.13;;
42134;SDS011;28312;43.460;11.810;2023-02-26T06:06:23;9.73;;;7.28;;
42134;SDS011;28312;43.460;11.810;2023-02-26T06:10:28;8.38;;;4.85;;
42134;SDS011;28312;43.460;11.810;2023-02-26T06:14:32;5.28;;;3.35;;
42134;SDS011;28312;43.460;11.810;2023-02-26T06:18:37;6.15;;;4.32;;
42134;SDS011;28312;43.460;11.810;2023-02-26T06:22:41;4.40;;;2.53;;
42134;SDS011;28312;43.460;11.810;2023-02-26T06:26:44;5.88;;;4.47;;
42134;SDS011;28312;43.460;11.810;2023-02-26T06:30:48;6.75;;;3.88;;
42134;SDS011;28312;43.460;11.810;2023-02-26T06:38:59;6.28;;;4.50;;
42134;SDS011;28312;43.460;11.810;2023-02-26T06:43:03;6.32;;;4.60;;
42134;SDS011;28312;43.460;11.810;2023-02-26T06:47:06;5.75;;;4.55;;
42134;SDS011;28312;43.460;11.810;2023-02-26T06:51:10;7.05;;;5.53;;
42134;SDS011;28312;43.460;11.810;2023-02-26T06:55:13;3.90;;;3.30;;
42134;SDS011;28312;43.460;11.810;2023-02-26T06:59:18;5.15;;;3.42;;
42134;SDS011;28312;43.460;11.810;2023-02-26T07:03:21;7.65;;;4.65;;
42134;SDS011;28312;43.460;11.810;2023-02-26T07:07:25;6.03;;;4.28;;
42134;SDS011;28312;43.460;11.810;2023-02-26T07:11:30;7.03;;;3.70;;
42134;SDS011;28312;43.460;11.810;2023-02-26T07:15:33;5.30;;;3.78;;
42134;SDS011;28312;43.460;11.810;2023-02-26T07:19:37;4.32;;;2.72;;
42134;SDS011;28312;43.460;11.810;2023-02-26T07:23:40;4.18;;;3.22;;
42134;SDS011;28312;43.460;11.810;2023-02-26T07:27:44;4.75;;;2.45;;
42134;SDS011;28312;43.460;11.810;2023-02-26T07:31:47;2.40;;;1.70;;
42134;SDS011;28312;43.460;11.810;2023-02-26T07:35:52;2.88;;;1.95;;
42134;SDS011;28312;43.460;11.810;2023-02-26T07:39:56;1.83;;;1.05;;
42134;SDS011;28312;43.460;11.810;2023-02-26T07:43:59;0.77;;;0.60;;
42134;SDS011;28312;43.460;11.810;2023-02-26T07:48:04;1.13;;;0.60;;
42134;SDS011;28312;43.460;11.810;2023-02-26T07:52:07;1.55;;;0.60;;
42134;SDS011;28312;43.460;11.810;2023-02-26T07:56:11;1.30;;;0.70;;
42134;SDS011;28312;43.460;11.810;2023-02-26T08:00:14;0.80;;;0.57;;
42134;SDS011;28312;43.460;11.810;2023-02-26T08:04:18;0.40;;;0.40;;
42134;SDS011;28312;43.460;11.810;2023-02-26T08:08:22;0.30;;;0.30;;
42134;SDS011;28312;43.460;11.810;2023-02-26T08:12:26;0.40;;;0.40;;
42134;SDS011;28312;43.460;11.810;2023-02-26T08:16:30;0.40;;;0.40;;
42134;SDS011;28312;43.460;11.810;2023-02-26T08:20:33;0.57;;;0.47;;
42134;SDS011;28312;43.460;11.810;2023-02-26T08:24:38;0.30;;;0.30;;
42134;SDS011;28312;43.460;11.810;2023-02-26T08:28:46;0.60;;;0.50;;
42134;SDS011;28312;43.460;11.810;2023-02-26T08:32:50;0.43;;;0.43;;
42134;SDS011;28312;43.460;11.810;2023-02-26T08:36:53;1.05;;;0.60;;
42134;SDS011;28312;43.460;11.810;2023-02-26T08:40:57;0.30;;;0.30;;
42134;SDS011;28312;43.460;11.810;2023-02-26T08:45:04;0.43;;;0.40;;
42134;SDS011;28312;43.460;11.810;2023-02-26T08:49:08;0.93;;;0.55;;
42134;SDS011;28312;43.460;11.810;2023-02-26T08:53:11;0.40;;;0.40;;
42134;SDS011;28312;43.460;11.810;2023-02-26T08:57:15;0.90;;;0.52;;
42134;SDS011;28312;43.460;11.810;2023-02-26T09:01:18;1.10;;;0.70;;
42134;SDS011;28312;43.460;11.810;2023-02-26T09:05:22;0.50;;;0.50;;
42134;SDS011;28312;43.460;11.810;2023-02-26T09:09:25;0.40;;;0.40;;
42134;SDS011;28312;43.460;11.810;2023-02-26T09:13:29;0.65;;;0.50;;
42134;SDS011;28312;43.460;11.810;2023-02-26T09:17:33;1.13;;;0.70;;
42134;SDS011;28312;43.460;11.810;2023-02-26T09:21:37;0.70;;;0.50;;
42134;SDS011;28312;43.460;11.810;2023-02-26T09:25:41;1.23;;;0.63;;
42134;SDS011;28312;43.460;11.810;2023-02-26T09:29:44;0.70;;;0.43;;
42134;SDS011;28312;43.460;11.810;2023-02-26T09:33:48;0.90;;;0.60;;
42134;SDS011;28312;43.460;11.810;2023-02-26T09:37:51;1.02;;;0.70;;
42134;SDS011;28312;43.460;11.810;2023-02-26T09:41:56;11.00;;;9.82;;
42134;SDS011;28312;43.460;11.810;2023-02-26T09:50:20;4.07;;;3.67;;
42134;SDS011;28312;43.460;11.810;2023-02-26T09:54:33;4.00;;;2.40;;
42134;SDS011;28312;43.460;11.810;2023-02-26T09:58:43;5.43;;;4.85;;
42134;SDS011;28312;43.460;11.810;2023-02-26T10:07:04;4.18;;;3.10;;
42134;SDS011;28312;43.460;11.810;2023-02-26T10:15:50;2.10;;;1.20;;
42134;SDS011;28312;43.460;11.810;2023-02-26T10:19:58;2.30;;;1.50;;
42134;SDS011;28312;43.460;11.810;2023-02-26T10:42:02;1.50;;;0.90;;
42134;SDS011;28312;43.460;11.810;2023-02-26T10:50:22;1.70;;;1.10;;
42134;SDS011;28312;43.460;11.810;2023-02-26T10:54:28;1.77;;;1.25;;
42134;SDS011;28312;43.460;11.810;2023-02-26T10:58:38;1.75;;;1.20;;
42134;SDS011;28312;43.460;11.810;2023-02-26T11:02:44;3.03;;;1.90;;
42134;SDS011;28312;43.460;11.810;2023-02-26T11:11:03;1.73;;;1.35;;
42134;SDS011;28312;43.460;11.810;2023-02-26T11:15:17;1.30;;;0.90;;
42134;SDS011;28312;43.460;11.810;2023-02-26T11:19:35;1.92;;;1.10;;
42134;SDS011;28312;43.460;11.810;2023-02-26T11:23:46;1.15;;;0.70;;
42134;SDS011;28312;43.460;11.810;2023-02-26T11:32:31;1.77;;;1.13;;
42134;SDS011;28312;43.460;11.810;2023-02-26T11:36:37;2.38;;;1.67;;
42134;SDS011;28312;43.460;11.810;2023-02-26T11:40:44;2.08;;;1.30;;
42134;SDS011;28312;43.460;11.810;2023-02-26T11:44:50;1.70;;;1.10;;
42134;SDS011;28312;43.460;11.810;2023-02-26T11:48:54;3.08;;;2.05;;
42134;SDS011;28312;43.460;11.810;2023-02-26T11:53:05;2.80;;;1.70;;
42134;SDS011;28312;43.460;11.810;2023-02-26T11:57:24;2.80;;;2.00;;
42134;SDS011;28312;43.460;11.810;2023-02-26T12:01:29;1.92;;;1.20;;
42134;SDS011;28312;43.460;11.810;2023-02-26T12:05:33;1.55;;;0.93;;
42134;SDS011;28312;43.460;11.810;2023-02-26T12:09:37;0.73;;;0.60;;
42134;SDS011;28312;43.460;11.810;2023-02-26T12:18:07;1.25;;;0.85;;
42134;SDS011;28312;43.460;11.810;2023-02-26T12:31:26;2.30;;;1.50;;
42134;SDS011;28312;43.460;11.810;2023-02-26T12:35:54;22.25;;;16.85;;
42134;SDS011;28312;43.460;11.810;2023-02-26T12:40:15;6.25;;;3.80;;
42134;SDS011;28312;43.460;11.810;2023-02-26T12:58:01;5.20;;;2.53;;
42134;SDS011;28312;43.460;11.810;2023-02-26T13:02:50;3.00;;;1.67;;
42134;SDS011;28312;43.460;11.810;2023-02-26T13:11:34;1.60;;;0.98;;
42134;SDS011;28312;43.460;11.810;2023-02-26T13:20:03;1.05;;;0.73;;
42134;SDS011;28312;43.460;11.810;2023-02-26T13:28:35;1.90;;;1.03;;
42134;SDS011;28312;43.460;11.810;2023-02-26T13:32:43;0.95;;;0.85;;
42134;SDS011;28312;43.460;11.810;2023-02-26T13:36:49;1.55;;;0.90;;
42134;SDS011;28312;43.460;11.810;2023-02-26T13:41:18;1.90;;;0.90;;
42134;SDS011;28312;43.460;11.810;2023-02-26T14:02:35;0.85;;;0.60;;
42134;SDS011;28312;43.460;11.810;2023-02-26T14:11:02;3.70;;;1.77;;
42134;SDS011;28312;43.460;11.810;2023-02-26T14:19:22;1.20;;;0.80;;
42134;SDS011;28312;43.460;11.810;2023-02-26T14:23:35;1.17;;;0.70;;
42134;SDS011;28312;43.460;11.810;2023-02-26T14:27:41;0.75;;;0.57;;
42134;SDS011;28312;43.460;11.810;2023-02-26T14:31:49;0.63;;;0.57;;
42134;SDS011;28312;43.460;11.810;2023-02-26T14:36:10;0.88;;;0.70;;
42134;SDS011;28312;43.460;11.810;2023-02-26T14:40:33;1.77;;;0.90;;
42134;SDS011;28312;43.460;11.810;2023-02-26T14:44:42;1.02;;;0.70;;
42134;SDS011;28312;43.460;11.810;2023-02-26T14:48:52;1.77;;;1.05;;
42134;SDS011;28312;43.460;11.810;2023-02-26T14:57:27;1.08;;;0.60;;
42134;SDS011;28312;43.460;11.810;2023-02-26T15:01:48;1.10;;;0.80;;
42134;SDS011;28312;43.460;11.810;2023-02-26T15:14:49;0.85;;;0.60;;
42134;SDS011;28312;43.460;11.810;2023-02-26T15:27:38;3.22;;;1.60;;
42134;SDS011;28312;43.460;11.810;2023-02-26T15:31:43;1.58;;;0.93;;
42134;SDS011;28312;43.460;11.810;2023-02-26T15:35:55;1.35;;;0.65;;
42134;SDS011;28312;43.460;11.810;2023-02-26T15:40:04;2.37;;;1.00;;
42134;SDS011;28312;43.460;11.810;2023-02-26T15:44:12;1.45;;;0.70;;
42134;SDS011;28312;43.460;11.810;2023-02-26T15:52:24;1.13;;;0.75;;
42134;SDS011;28312;43.460;11.810;2023-02-26T15:56:33;3.53;;;0.82;;
42134;SDS011;28312;43.460;11.810;2023-02-26T16:00:40;1.08;;;0.77;;
42134;SDS011;28312;43.460;11.810;2023-02-26T16:04:44;1.05;;;0.63;;
42134;SDS011;28312;43.460;11.810;2023-02-26T16:08:48;0.98;;;0.52;;
42134;SDS011;28312;43.460;11.810;2023-02-26T16:12:52;1.02;;;0.60;;
42134;SDS011;28312;43.460;11.810;2023-02-26T16:16:57;1.45;;;0.77;;
42134;SDS011;28312;43.460;11.810;2023-02-26T16:21:02;0.85;;;0.60;;
42134;SDS011;28312;43.460;11.810;2023-02-26T16:29:51;1.17;;;0.77;;
42134;SDS011;28312;43.460;11.810;2023-02-26T16:34:02;1.10;;;0.70;;
42134;SDS011;28312;43.460;11.810;2023-02-26T16:38:11;1.17;;;0.77;;
42134;SDS011;28312;43.460;11.810;2023-02-26T16:42:42;1.00;;;0.68;;
42134;SDS011;28312;43.460;11.810;2023-02-26T16:46:48;0.88;;;0.77;;
42134;SDS011;28312;43.460;11.810;2023-02-26T16:50:56;1.13;;;0.80;;
42134;SDS011;28312;43.460;11.810;2023-02-26T16:55:15;3.95;;;2.10;;
42134;SDS011;28312;43.460;11.810;2023-02-26T16:59:21;7.18;;;5.40;;
42134;SDS011;28312;43.460;11.810;2023-02-26T17:03:27;11.65;;;10.55;;
42134;SDS011;28312;43.460;11.810;2023-02-26T17:07:33;3.78;;;2.80;;
42134;SDS011;28312;43.460;11.810;2023-02-26T17:11:39;3.35;;;2.75;;
42134;SDS011;28312;43.460;11.810;2023-02-26T17:15:46;3.25;;;1.95;;
42134;SDS011;28312;43.460;11.810;2023-02-26T17:19:51;3.88;;;1.60;;
42134;SDS011;28312;43.460;11.810;2023-02-26T17:23:56;4.30;;;3.88;;
42134;SDS011;28312;43.460;11.810;2023-02-26T17:28:03;2.65;;;1.92;;
42134;SDS011;28312;43.460;11.810;2023-02-26T17:32:11;3.55;;;1.98;;
42134;SDS011;28312;43.460;11.810;2023-02-26T17:36:20;3.50;;;2.38;;
42134;SDS011;28312;43.460;11.810;2023-02-26T17:40:30;1.70;;;1.13;;
42134;SDS011;28312;43.460;11.810;2023-02-26T17:44:40;2.53;;;1.48;;
42134;SDS011;28312;43.460;11.810;2023-02-26T17:48:47;9.00;;;2.15;;
42134;SDS011;28312;43.460;11.810;2023-02-26T17:52:51;2.03;;;1.30;;
42134;SDS011;28312;43.460;11.810;2023-02-26T17:56:56;3.05;;;2.22;;
42134;SDS011;28312;43.460;11.810;2023-02-26T18:01:01;2.83;;;2.53;;
42134;SDS011;28312;43.460;11.810;2023-02-26T18:05:07;2.87;;;1.80;;
42134;SDS011;28312;43.460;11.810;2023-02-26T18:09:12;3.00;;;1.50;;
42134;SDS011;28312;43.460;11.810;2023-02-26T18:13:18;1.90;;;1.30;;
42134;SDS011;28312;43.460;11.810;2023-02-26T18:17:23;2.80;;;1.83;;
42134;SDS011;28312;43.460;11.810;2023-02-26T18:21:31;5.22;;;3.78;;
42134;SDS011;28312;43.460;11.810;2023-02-26T18:25:35;2.58;;;1.77;;
42134;SDS011;28312;43.460;11.810;2023-02-26T18:29:40;1.90;;;1.20;;
42134;SDS011;28312;43.460;11.810;2023-02-26T18:33:45;1.50;;;0.93;;
42134;SDS011;28312;43.460;11.810;2023-02-26T18:37:51;2.10;;;1.10;;
42134;SDS011;28312;43.460;11.810;2023-02-26T18:41:55;1.27;;;0.82;;
42134;SDS011;28312;43.460;11.810;2023-02-26T18:46:01;1.67;;;1.10;;
42134;SDS011;28312;43.460;11.810;2023-02-26T18:50:07;1.52;;;0.95;;
42134;SDS011;28312;43.460;11.810;2023-02-26T18:54:17;0.98;;;0.70;;
42134;SDS011;28312;43.460;11.810;2023-02-26T18:58:21;1.83;;;1.27;;
42134;SDS011;28312;43.460;11.810;2023-02-26T19:02:25;4.03;;;1.92;;
42134;SDS011;28312;43.460;11.810;2023-02-26T19:06:29;2.30;;;1.50;;
42134;SDS011;28312;43.460;11.810;2023-02-26T19:10:37;3.05;;;1.67;;
42134;SDS011;28312;43.460;11.810;2023-02-26T19:14:43;2.10;;;1.30;;
42134;SDS011;28312;43.460;11.810;2023-02-26T19:18:48;2.67;;;1.27;;
42134;SDS011;28312;43.460;11.810;2023-02-26T19:22:53;1.27;;;0.90;;
42134;SDS011;28312;43.460;11.810;2023-02-26T19:26:57;2.10;;;1.17;;
42134;SDS011;28312;43.460;11.810;2023-02-26T19:31:02;1.13;;;0.82;;
42134;SDS011;28312;43.460;11.810;2023-02-26T19:35:09;1.30;;;0.88;;
42134;SDS011;28312;43.460;11.810;2023-02-26T19:39:13;2.10;;;1.23;;
42134;SDS011;28312;43.460;11.810;2023-02-26T19:43:18;2.33;;;1.48;;
42134;SDS011;28312;43.460;11.810;2023-02-26T19:47:23;2.25;;;1.52;;
42134;SDS011;28312;43.460;11.810;2023-02-26T19:51:26;3.08;;;1.77;;
42134;SDS011;28312;43.460;11.810;2023-02-26T19:55:32;2.20;;;1.48;;
42134;SDS011;28312;43.460;11.810;2023-02-26T19:59:36;2.20;;;1.58;;
42134;SDS011;28312;43.460;11.810;2023-02-26T20:03:41;2.42;;;1.67;;
42134;SDS011;28312;43.460;11.810;2023-02-26T20:07:51;1.75;;;1.10;;
42134;SDS011;28312;43.460;11.810;2023-02-26T20:12:06;1.98;;;1.05;;
42134;SDS011;28312;43.460;11.810;2023-02-26T20:16:14;1.40;;;0.90;;
42134;SDS011;28312;43.460;11.810;2023-02-26T20:20:18;1.25;;;0.85;;
42134;SDS011;28312;43.460;11.810;2023-02-26T20:24:22;1.65;;;0.60;;
42134;SDS011;28312;43.460;11.810;2023-02-26T20:28:25;0.70;;;0.60;;
42134;SDS011;28312;43.460;11.810;2023-02-26T20:32:29;0.95;;;0.70;;
42134;SDS011;28312;43.460;11.810;2023-02-26T20:36:34;0.80;;;0.63;;
42134;SDS011;28312;43.460;11.810;2023-02-26T20:40:37;3.53;;;2.05;;
42134;SDS011;28312;43.460;11.810;2023-02-26T20:44:41;3.95;;;1.92;;
42134;SDS011;28312;43.460;11.810;2023-02-26T20:48:46;2.97;;;1.85;;
42134;SDS011;28312;43.460;11.810;2023-02-26T20:52:52;3.08;;;2.22;;
42134;SDS011;28312;43.460;11.810;2023-02-26T20:56:59;1.13;;;0.77;;
42134;SDS011;28312;43.460;11.810;2023-02-26T21:01:04;2.05;;;1.00;;
42134;SDS011;28312;43.460;11.810;2023-02-26T21:05:10;1.08;;;0.57;;
42134;SDS011;28312;43.460;11.810;2023-02-26T21:09:14;1.63;;;0.60;;
42134;SDS011;28312;43.460;11.810;2023-02-26T21:13:18;5.57;;;3.65;;
42134;SDS011;28312;43.460;11.810;2023-02-26T21:17:23;3.47;;;1.92;;
42134;SDS011;28312;43.460;11.810;2023-02-26T21:21:27;3.22;;;1.58;;
42134;SDS011;28312;43.460;11.810;2023-02-26T21:25:32;2.40;;;1.73;;
42134;SDS011;28312;43.460;11.810;2023-02-26T21:29:36;3.47;;;1.70;;
42134;SDS011;28312;43.460;11.810;2023-02-26T21:33:39;3.17;;;1.75;;
42134;SDS011;28312;43.460;11.810;2023-02-26T21:37:43;1.80;;;1.38;;
42134;SDS011;28312;43.460;11.810;2023-02-26T21:41:49;3.80;;;1.70;;
42134;SDS011;28312;43.460;11.810;2023-02-26T21:45:54;2.17;;;1.27;;
42134;SDS011;28312;43.460;11.810;2023-02-26T21:49:59;2.00;;;1.30;;
42134;SDS011;28312;43.460;11.810;2023-02-26T21:54:04;2.30;;;0.80;;
42134;SDS011;28312;43.460;11.810;2023-02-26T21:58:09;0.60;;;0.57;;
42134;SDS011;28312;43.460;11.810;2023-02-26T22:02:15;0.82;;;0.52;;
42134;SDS011;28312;43.460;11.810;2023-02-26T22:06:21;1.00;;;0.70;;
42134;SDS011;28312;43.460;11.810;2023-02-26T22:10:27;1.00;;;0.60;;
42134;SDS011;28312;43.460;11.810;2023-02-26T22:14:32;0.65;;;0.57;;
42134;SDS011;28312;43.460;11.810;2023-02-26T22:18:38;0.98;;;0.52;;
42134;SDS011;28312;43.460;11.810;2023-02-26T22:22:43;10.43;;;5.50;;
42134;SDS011;28312;43.460;11.810;2023-02-26T22:26:49;2.92;;;1.80;;
42134;SDS011;28312;43.460;11.810;2023-02-26T22:30:54;1.35;;;0.80;;
42134;SDS011;28312;43.460;11.810;2023-02-26T22:34:58;2.30;;;1.05;;
42134;SDS011;28312;43.460;11.810;2023-02-26T22:39:02;2.08;;;0.98;;
42134;SDS011;28312;43.460;11.810;2023-02-26T22:43:08;1.15;;;0.63;;
42134;SDS011;28312;43.460;11.810;2023-02-26T22:47:11;0.73;;;0.68;;
42134;SDS011;28312;43.460;11.810;2023-02-26T22:51:15;0.85;;;0.50;;
42134;SDS011;28312;43.460;11.810;2023-02-26T22:55:19;0.75;;;0.52;;
42134;SDS011;28312;43.460;11.810;2023-02-26T22:59:23;1.33;;;0.50;;
42134;SDS011;28312;43.460;11.810;2023-02-26T23:03:27;0.45;;;0.45;;
42134;SDS011;28312;43.460;11.810;2023-02-26T23:07:31;0.47;;;0.47;;
42134;SDS011;28312;43.460;11.810;2023-02-26T23:11:35;0.40;;;0.40;;
42134;SDS011;28312;43.460;11.810;2023-02-26T23:15:38;0.70;;;0.50;;
42134;SDS011;28312;43.460;11.810;2023-02-26T23:19:42;0.82;;;0.60;;
42134;SDS011;28312;43.460;11.810;2023-02-26T23:23:45;0.63;;;0.52;;
42134;SDS011;28312;43.460;11.810;2023-02-26T23:27:50;0.55;;;0.40;;
42134;SDS011;28312;43.460;11.810;2023-02-26T23:31:53;0.70;;;0.50;;
42134;SDS011;28312;43.460;11.810;2023-02-26T23:35:58;0.30;;;0.30;;
42134;SDS011;28312;43.460;11.810;2023-02-26T23:40:03;0.85;;;0.47;;
42134;SDS011;28312;43.460;11.810;2023-02-26T23:44:07;0.20;;;0.20;;
42134;SDS011;28312;43.460;11.810;2023-02-26T23:48:10;0.75;;;0.52;;
42134;SDS011;28312;43.460;11.810;2023-02-26T23:52:14;0.75;;;0.50;;
42134;SDS011;28312;43.460;11.810;2023-02-26T23:56:18;0.22;;;0.22;;
